Porterville, CA (93257)

11:39 PM PST on February 27, 2015 (GMT -0800)
MAP POTERVILLE (P056) CA PSD | Change Station
CLOSE
Current Station
Personal Weather Station
Location: Porterville, CA
Elevation: 436 ft
Nearby Weather Stations

Elev 436 ft 36.03 °N, 119.06 °W | Updated 1 hour ago

Mostly Cloudy
Mostly Cloudy
55 °F
Feels Like 55 °F
N
7
Wind Variable Wind from WNW
Gusts 0.0 mph

Today
High -- | Low -- °F
--% Chance of Precip.
Yesterday
High -- | Low -- °F
Precip. -- in
6:29 AM 5:49 PM
Waxing Gibbous, 75% visible
Pressure 29.76 in
Visibility 10.0 miles
Clouds Mostly Cloudy 4400 ft
Overcast 5000 ft
Dew Point 47 °F
Humidity 74%
Rainfall -999.00 in
Snow Depth Not available.
UV 0 out of 12
Pollen 9.10 out of 12
Air Quality Not available.
Flu Activity Not available.
METAR KPTV 280735Z AUTO 28006KT 10SM BKN044 OVC050 11/07 A2976 RMK AO1

More Conditions Fewer Conditions

Pressure 29.76 in
Visibility 10.0 miles
Clouds Mostly Cloudy 4400 ft
Overcast 5000 ft
Dew Point 47 °F
Humidity 74%
Rainfall -999.00 in
Snow Depth Not available.
UV 0 out of 12
Pollen 9.10 out of 12
Air Quality Not available.
Flu Activity Not available.
METAR KPTV 280735Z AUTO 28006KT 10SM BKN044 OVC050 11/07 A2976 RMK AO1

More Conditions Fewer Conditions

10-Day Weather Forecast

Almanac

Astronomy

Feb. 27, 2015 Rise Set
Actual Time
Civil Twilight
Nautical Twilight
Astronomical Twilight
Moon
Length of Visible Light
Length of Day
Tomorrow will be .
, % of the Moon is Illuminated

Today's Extremes

State Highs State Lows

Community

WunderPhotos

Upload Photos

1,800,981 photos uploaded!

WunderBlogs® & News

Nearby

Air Quality

  Air Quality AQ Index Pollutant
Not available.

Snow Depth

Station Depth Elevation

Earthquake Activity

City Distance Mag. Time & Date
Minimum magnitude displayed is 2.5.

Coastal Water Temperatures

Place Temperature

Nearby Weather Stations